Time;durP1;ratioP1;P1;durP2;ratioP2;P2;SDS_P1;SDS_P2;PMS_P1;PMS_P2;Temp;Humidity;BMP_temperature;BMP_pressure;BME280_temperature;BME280_humidity;BME280_pressure;Samples;Min_cycle;Max_cycle;Signal;HPM_P1;HPM_P2
2022/03/05 07:10:00;;;;;;;;;30.00;27.25;;;;;13.91;100.00;101547.56;6276055;22;46379;-90
2022/03/05 07:12:26;;;;;;;;;43.50;30.75;;;;;13.93;100.00;101544.97;6288336;22;45422;-91
2022/03/05 07:14:51;;;;;;;;;41.25;33.25;;;;;13.97;100.00;101546.91;6287974;22;45471;-90
2022/03/05 07:17:17;;;;;;;;;49.25;34.75;;;;;13.98;100.00;101548.72;6270032;22;45436;-90
2022/03/05 07:19:42;;;;;;;;;40.50;35.25;;;;;14.03;100.00;101557.75;6295519;22;46851;-90
2022/03/05 07:22:08;;;;;;;;;38.50;33.50;;;;;14.04;100.00;101558.66;6272513;22;45239;-88
2022/03/05 07:24:33;;;;;;;;;37.00;34.25;;;;;14.08;100.00;101566.78;6269206;22;44729;-88
2022/03/05 07:26:59;;;;;;;;;40.75;30.50;;;;;14.10;100.00;101564.19;6270523;22;45552;-88
2022/03/05 07:29:24;;;;;;;;;38.75;33.50;;;;;14.12;100.00;101570.44;6273459;22;46160;-90
2022/03/05 07:31:50;;;;;;;;;47.00;36.75;;;;;14.22;100.00;101578.78;6242584;22;45616;-88
2022/03/05 07:34:15;;;;;;;;;44.75;36.75;;;;;14.17;100.00;101571.53;6295304;22;45367;-88
2022/03/05 07:36:41;;;;;;;;;49.00;37.25;;;;;14.22;100.00;101581.41;6294065;22;45374;-88
2022/03/05 07:39:07;;;;;;;;;48.00;37.00;;;;;14.20;100.00;101568.13;6294600;22;48178;-85
2022/03/05 07:41:33;;;;;;;;;42.75;36.75;;;;;14.21;100.00;101572.59;6293501;22;45372;-91
2022/03/05 07:43:59;;;;;;;;;42.25;34.50;;;;;14.22;100.00;101577.03;6293536;22;45517;-87
2022/03/05 07:46:24;;;;;;;;;44.75;36.50;;;;;14.27;100.00;101585.16;6267723;22;45535;-88
2022/03/05 07:48:50;;;;;;;;;39.75;35.75;;;;;14.21;100.00;101583.16;6294205;22;46944;-86
2022/03/05 07:51:15;;;;;;;;;46.50;34.50;;;;;14.19;100.00;101583.09;6242995;22;45384;-88
2022/03/05 07:53:40;;;;;;;;;46.00;37.75;;;;;14.24;100.00;101585.94;6270945;22;45364;-86
2022/03/05 07:56:06;;;;;;;;;40.50;33.75;;;;;14.29;100.00;101594.97;6263643;22;45235;-89
2022/03/05 07:58:31;;;;;;;;;43.75;35.25;;;;;14.30;100.00;101593.22;6269430;22;45388;-90
2022/03/05 08:00:58;;;;;;;;;41.25;33.00;;;;;14.35;100.00;101596.06;6269676;22;45295;-89
2022/03/05 08:03:23;;;;;;;;;49.25;37.50;;;;;14.37;100.00;101597.03;6268409;22;45330;-89
2022/03/05 08:05:49;;;;;;;;;47.50;36.50;;;;;14.41;100.00;101602.50;6270270;22;45448;-89
2022/03/05 08:08:14;;;;;;;;;43.75;36.75;;;;;14.48;100.00;101598.38;6268779;22;46402;-88
2022/03/05 08:10:39;;;;;;;;;47.75;36.25;;;;;14.58;100.00;101601.44;6269473;22;45290;-88
2022/03/05 08:13:05;;;;;;;;;45.50;38.75;;;;;14.59;100.00;101609.41;6268553;22;45651;-88
2022/03/05 08:15:30;;;;;;;;;45.25;36.50;;;;;14.60;100.00;101598.00;6269290;22;45306;-88
2022/03/05 08:17:58;;;;;;;;;42.25;36.00;;;;;14.71;100.00;101610.78;6269982;22;46897;-89
2022/03/05 08:20:26;;;;;;;;;50.00;39.25;;;;;14.77;100.00;101608.38;6272274;22;45595;-87
2022/03/05 08:22:52;;;;;;;;;46.50;33.25;;;;;14.77;100.00;101597.81;6273011;22;45139;-87
2022/03/05 08:25:19;;;;;;;;;46.25;34.75;;;;;14.87;100.00;101607.03;6294382;22;45550;-87
2022/03/05 08:27:44;;;;;;;;;51.25;39.00;;;;;14.94;100.00;101601.22;6274595;22;45432;-86
2022/03/05 08:30:11;;;;;;;;;46.00;39.00;;;;;15.00;100.00;101600.53;6273870;22;45335;-87
2022/03/05 08:32:36;;;;;;;;;50.75;35.75;;;;;15.07;100.00;101601.69;6296369;22;45694;-89
2022/03/05 08:35:03;;;;;;;;;49.75;38.50;;;;;15.14;100.00;101602.84;6244926;22;45551;-88
2022/03/05 08:37:29;;;;;;;;;49.25;37.25;;;;;15.19;100.00;101599.53;6273049;22;46223;-90
2022/03/05 08:39:54;;;;;;;;;53.00;38.00;;;;;15.31;100.00;101608.78;6296561;22;45358;-89
2022/03/05 08:42:20;;;;;;;;;53.50;37.75;;;;;15.30;100.00;101591.13;6269492;22;45580;-89
2022/03/05 08:44:46;;;;;;;;;52.25;38.75;;;;;15.44;100.00;101598.69;6268923;22;45290;-92
2022/03/05 08:47:11;;;;;;;;;42.25;36.00;;;;;15.53;100.00;101605.25;6245587;22;48009;-92
2022/03/05 08:49:36;;;;;;;;;48.75;39.25;;;;;15.63;100.00;101597.66;6245938;22;45468;-92
2022/03/05 08:52:02;;;;;;;;;50.50;38.25;;;;;15.77;100.00;101610.53;6299705;22;45365;-90
2022/03/05 08:54:28;;;;;;;;;50.50;40.50;;;;;15.82;100.00;101608.97;6279139;22;45313;-92
2022/03/05 08:56:53;;;;;;;;;53.75;42.50;;;;;15.92;100.00;101607.56;6278341;22;47111;-91
2022/03/05 08:59:18;;;;;;;;;53.75;39.75;;;;;15.98;100.00;101597.16;6279871;22;45227;-89
2022/03/05 09:01:45;;;;;;;;;46.75;35.00;;;;;16.18;100.00;101612.94;6274646;22;45358;-89
2022/03/05 09:04:10;;;;;;;;;54.50;40.25;;;;;16.23;100.00;101613.09;6242535;22;45422;-89
2022/03/05 09:06:36;;;;;;;;;46.00;37.00;;;;;16.37;100.00;101614.47;6269705;22;46205;-89
2022/03/05 09:09:03;;;;;;;;;54.50;39.00;;;;;16.45;100.00;101596.22;6269855;22;45386;-89
2022/03/05 09:11:28;;;;;;;;;46.50;38.25;;;;;16.57;100.00;101608.97;6242563;22;45449;-90
2022/03/05 09:13:54;;;;;;;;;49.75;41.25;;;;;16.66;100.00;101599.53;6294038;22;45783;-91
2022/03/05 09:16:19;;;;;;;;;54.25;40.00;;;;;16.79;100.00;101596.47;6269664;22;46119;-88
2022/03/05 09:18:45;;;;;;;;;51.00;37.25;;;;;16.98;100.00;101612.97;6267519;22;45428;-90
2022/03/05 09:21:10;;;;;;;;;46.50;37.50;;;;;17.12;100.00;101615.16;6269210;22;45211;-90
2022/03/05 09:23:36;;;;;;;;;50.00;37.50;;;;;17.27;100.00;101610.38;6270250;22;45215;-89
2022/03/05 09:26:02;;;;;;;;;56.75;40.75;;;;;17.41;100.00;101616.13;6267104;22;47500;-89
2022/03/05 09:28:27;;;;;;;;;56.00;40.75;;;;;17.49;100.00;101613.72;6268874;22;45275;-89
2022/03/05 09:30:52;;;;;;;;;47.50;38.75;;;;;17.65;100.00;101625.66;6269373;22;45555;-89
2022/03/05 09:33:21;;;;;;;;;51.00;38.50;;;;;17.79;100.00;101619.88;6269374;22;45315;-88
2022/03/05 09:35:46;;;;;;;;;54.00;40.50;;;;;17.91;100.00;101608.69;6269665;22;46121;-88
2022/03/05 09:38:11;;;;;;;;;45.25;38.50;;;;;18.12;100.00;101617.22;6267731;22;45618;-88
2022/03/05 09:40:38;;;;;;;;;49.50;38.50;;;;;18.23;100.00;101609.59;6269903;22;45316;-88
2022/03/05 09:43:03;;;;;;;;;53.25;43.50;;;;;18.36;100.00;101622.38;6292310;22;45352;-89
2022/03/05 09:45:29;;;;;;;;;48.75;39.25;;;;;18.45;100.00;101613.72;6268776;22;46130;-88
2022/03/05 09:47:56;;;;;;;;;57.00;45.00;;;;;18.63;100.00;101628.41;6241935;22;45788;-88
2022/03/05 09:50:24;;;;;;;;;53.00;39.50;;;;;18.72;100.00;101623.28;6293407;22;45452;-88
2022/03/05 09:52:50;;;;;;;;;57.25;42.50;;;;;18.77;100.00;101618.09;6242084;22;45274;-89
2022/03/05 09:55:15;;;;;;;;;52.00;42.50;;;;;18.98;100.00;101615.06;6267713;22;47025;-89
2022/03/05 09:57:40;;;;;;;;;54.25;41.50;;;;;19.17;100.00;101614.63;6266681;22;45893;-89
2022/03/05 10:00:06;;;;;;;;;43.75;37.75;;;;;19.39;100.00;101607.16;6269337;22;45469;-89
2022/03/05 10:02:32;;;;;;;;;54.50;44.75;;;;;19.52;100.00;101619.88;6241524;22;45411;-89
2022/03/05 10:05:26;;;;;;;;;56.75;43.25;;;;;19.72;100.00;101622.06;6269708;22;46603;-89
2022/03/05 10:08:08;;;;;;;;;55.50;42.75;;;;;19.79;100.00;101623.06;6248520;22;45314;-89
2022/03/05 10:10:56;;;;;;;;;46.25;38.25;;;;;19.83;100.00;101624.06;6267615;22;45327;-89
2022/03/05 10:13:33;;;;;;;;;55.00;44.50;;;;;19.80;100.00;101619.56;6268868;22;45344;-89
2022/03/05 10:16:29;;;;;;;;;53.75;43.25;;;;;19.91;100.00;101622.44;6241428;22;46431;-88
2022/03/05 10:18:55;;;;;;;;;55.50;42.50;;;;;19.90;100.00;101627.72;6261594;22;45383;-89
2022/03/05 10:21:29;;;;;;;;;53.25;42.00;;;;;19.98;100.00;101626.13;6274067;22;45296;-89
2022/03/05 10:24:09;;;;;;;;;50.50;38.00;;;;;19.99;100.00;101627.94;6242854;22;45378;-89
2022/03/05 10:26:55;;;;;;;;;55.75;43.50;;;;;20.07;100.00;101631.66;6270629;22;45626;-88
2022/03/05 10:29:22;;;;;;;;;55.75;43.25;;;;;20.13;100.00;101624.66;6270799;22;45654;-89
2022/03/05 10:31:59;;;;;;;;;54.00;42.50;;;;;20.24;100.00;101622.22;6241615;22;45354;-88
2022/03/05 10:34:25;;;;;;;;;52.50;39.75;;;;;20.29;100.00;101621.44;6270604;22;45314;-90
2022/03/05 10:37:02;;;;;;;;;51.75;42.00;;;;;20.43;100.00;101624.38;6243532;22;48030;-90
2022/03/05 10:39:28;;;;;;;;;57.25;45.75;;;;;20.31;100.00;101627.69;6297046;22;45324;-90
2022/03/05 10:41:57;;;;;;;;;53.75;43.25;;;;;20.23;100.00;101631.97;6271295;22;45327;-92
2022/03/05 10:44:23;;;;;;;;;55.50;41.00;;;;;20.21;100.00;101626.63;6246493;22;45460;-87
2022/03/05 10:46:57;;;;;;;;;55.75;43.50;;;;;20.32;100.00;101625.94;6271726;22;46310;-89
2022/03/05 10:49:26;;;;;;;;;53.50;42.75;;;;;20.29;100.00;101621.44;6273137;22;45375;-87
2022/03/05 10:52:05;;;;;;;;;50.75;41.25;;;;;20.35;100.00;101627.75;6243095;22;45339;-87
2022/03/05 10:54:35;;;;;;;;;51.50;42.25;;;;;20.20;100.00;101615.94;6271193;22;45516;-88
2022/03/05 10:57:10;;;;;;;;;54.00;40.25;;;;;20.27;100.00;101620.50;6270122;22;45532;-87
2022/03/05 10:59:40;;;;;;;;;56.75;45.25;;;;;20.17;100.00;101623.88;6270280;22;45204;-91
2022/03/05 11:02:07;;;;;;;;;53.25;40.00;;;;;20.15;100.00;101614.94;6250951;22;45462;-92
2022/03/05 11:04:35;;;;;;;;;51.75;40.75;;;;;20.38;100.00;101626.06;6302556;22;45313;-91
2022/03/05 11:07:02;;;;;;;;;57.25;43.75;;;;;20.62;100.00;101610.44;6271880;22;45388;-90
2022/03/05 11:09:29;;;;;;;;;55.25;41.75;;;;;20.91;100.00;101619.81;6315990;22;45386;-89
2022/03/05 11:11:56;;;;;;;;;56.50;43.25;;;;;21.07;100.00;101612.97;6270580;22;45345;-87
2022/03/05 11:14:22;;;;;;;;;48.25;38.25;;;;;21.46;100.00;101617.97;6293136;22;45372;-87
2022/03/05 11:16:48;;;;;;;;;52.75;41.00;;;;;21.59;100.00;101609.28;6301308;22;45455;-87
2022/03/05 11:19:14;;;;;;;;;54.75;40.75;;;;;21.81;100.00;101620.22;6302381;22;45384;-90
2022/03/05 11:21:39;;;;;;;;;49.50;39.50;;;;;22.02;100.00;101615.13;6302103;22;45658;-89
2022/03/05 11:24:06;;;;;;;;;49.75;41.00;;;;;22.23;100.00;101618.91;6302447;22;45397;-88
2022/03/05 11:26:32;;;;;;;;;48.25;36.25;;;;;22.33;100.00;101618.13;6300080;22;47276;-87
2022/03/05 11:28:58;;;;;;;;;51.25;42.00;;;;;22.32;100.00;101606.53;6299401;22;45422;-88
2022/03/05 11:31:32;;;;;;;;;50.50;38.75;;;;;22.60;100.00;101623.75;6301744;22;45437;-88
2022/03/05 11:34:10;;;;;;;;;49.75;41.25;;;;;22.72;100.00;101609.59;6303102;22;45278;-88
2022/03/05 11:36:38;;;;;;;;;49.50;37.75;;;;;22.60;100.00;101615.72;6302319;22;46480;-88
2022/03/05 11:39:27;;;;;;;;;36.75;34.75;;;;;22.84;100.00;101617.72;6304179;22;45794;-90
2022/03/05 11:42:08;;;;;;;;;52.75;41.00;;;;;22.95;100.00;101617.81;6300924;22;45358;-87
2022/03/05 11:44:37;;;;;;;;;46.75;39.50;;;;;23.08;100.00;101613.44;6301373;22;45489;-92
2022/03/05 11:47:21;;;;;;;;;49.75;38.50;;;;;23.27;100.00;101618.91;6304412;22;46571;-92
2022/03/05 11:50:04;;;;;;;;;48.50;38.25;;;;;23.35;100.00;101616.25;6275211;22;45696;-91
2022/03/05 11:52:38;;;;;;;;;52.50;42.00;;;;;23.60;100.00;101619.13;6303410;22;45303;-89
2022/03/05 11:55:26;;;;;;;;;40.75;34.00;;;;;23.83;100.00;101620.09;6303587;22;45325;-88
2022/03/05 11:57:51;;;;;;;;;47.50;37.25;;;;;23.89;100.00;101615.66;6302098;22;47482;-89
2022/03/05 12:00:28;;;;;;;;;47.50;40.75;;;;;23.99;100.00;101607.66;6278139;22;45351;-92
2022/03/05 12:02:57;;;;;;;;;48.50;40.00;;;;;23.83;100.00;101604.94;6303291;22;45501;-90
2022/03/05 12:05:38;;;;;;;;;51.75;38.50;;;;;23.95;100.00;101616.56;6300875;22;45376;-89
2022/03/05 12:08:21;;;;;;;;;51.50;40.50;;;;;24.06;100.00;101614.81;6273893;22;47338;-90
2022/03/05 12:11:07;;;;;;;;;48.75;38.75;;;;;24.23;100.00;101613.94;6248330;22;45406;-88
2022/03/05 12:13:32;;;;;;;;;49.50;40.00;;;;;24.14;100.00;101603.22;6270764;22;45403;-89
2022/03/05 12:15:57;;;;;;;;;50.00;41.50;;;;;24.13;100.00;101613.03;6277596;22;45515;-91
2022/03/05 12:18:23;;;;;;;;;50.50;41.00;;;;;24.04;100.00;101603.19;6283596;22;46625;-92
2022/03/05 12:20:48;;;;;;;;;50.00;40.25;;;;;23.92;100.00;101604.03;6281773;22;45675;-89
2022/03/05 12:23:19;;;;;;;;;51.25;41.00;;;;;24.03;100.00;101613.91;6282589;22;45475;-90
2022/03/05 12:25:48;;;;;;;;;49.75;39.50;;;;;23.95;100.00;101596.00;6255239;22;45234;-90
2022/03/05 12:28:26;;;;;;;;;47.50;38.75;;;;;23.93;100.00;101587.06;6285915;22;45166;-92
2022/03/05 12:31:04;;;;;;;;;43.75;37.25;;;;;23.86;100.00;101606.72;6268779;22;45298;-90
2022/03/05 12:33:33;;;;;;;;;48.50;39.00;;;;;23.82;100.00;101589.72;6254205;22;45390;-89
2022/03/05 12:35:58;;;;;;;;;50.75;39.50;;;;;23.85;100.00;101604.91;6251231;22;45263;-91
2022/03/05 12:38:32;;;;;;;;;48.00;38.75;;;;;23.59;100.00;101597.66;6295543;22;47092;-91
2022/03/05 12:41:31;;;;;;;;;48.50;38.25;;;;;23.35;100.00;101597.50;6277307;22;44724;-91
2022/03/05 12:44:18;;;;;;;;;46.00;39.00;;;;;23.13;100.00;101585.78;6320906;22;44724;-91
2022/03/05 12:46:44;;;;;;;;;49.75;41.00;;;;;22.92;100.00;101591.03;6256449;22;45290;-92
2022/03/05 12:49:09;;;;;;;;;47.25;40.00;;;;;22.86;100.00;101590.97;6283092;22;45388;-89
2022/03/05 12:51:35;;;;;;;;;43.75;37.75;;;;;22.79;100.00;101587.34;6271000;22;45266;-91
2022/03/05 12:54:02;;;;;;;;;47.25;39.25;;;;;22.58;100.00;101586.25;6271607;22;45514;-91
2022/03/05 12:56:28;;;;;;;;;54.00;42.00;;;;;22.13;100.00;101594.78;6241890;22;45259;-89
2022/03/05 12:58:59;;;;;;;;;48.00;38.75;;;;;21.80;100.00;101596.16;6293945;22;48111;-90
2022/03/05 13:01:26;;;;;;;;;53.50;41.25;;;;;21.32;100.00;101594.66;6269627;22;45288;-88
2022/03/05 13:03:54;;;;;;;;;52.50;43.25;;;;;21.05;100.00;101590.72;6270536;22;45700;-89
2022/03/05 13:06:20;;;;;;;;;50.00;40.00;;;;;20.69;100.00;101584.78;6241969;22;45571;-88
2022/03/05 13:08:45;;;;;;;;;57.00;42.75;;;;;20.46;100.00;101594.16;6269202;22;46326;-88
2022/03/05 13:11:13;;;;;;;;;60.25;48.25;;;;;20.31;100.00;101586.78;6269302;22;45350;-89
2022/03/05 13:13:41;;;;;;;;;49.00;40.75;;;;;20.13;100.00;101585.59;6294285;22;45395;-89
2022/03/05 13:16:09;;;;;;;;;57.75;44.00;;;;;19.92;100.00;101580.72;6270166;22;45339;-89
2022/03/05 13:18:36;;;;;;;;;51.75;41.75;;;;;19.72;100.00;101586.53;6272281;22;45243;-89
2022/03/05 13:21:04;;;;;;;;;57.50;44.00;;;;;19.64;100.00;101584.63;6242473;22;45468;-88
2022/03/05 13:23:31;;;;;;;;;50.75;40.50;;;;;19.49;100.00;101582.53;6270357;22;45305;-89
2022/03/05 13:25:57;;;;;;;;;54.25;42.00;;;;;19.36;100.00;101575.13;6241376;22;45378;-86
2022/03/05 13:28:26;;;;;;;;;52.50;42.25;;;;;19.32;100.00;101579.50;6268543;22;45372;-86
2022/03/05 13:30:54;;;;;;;;;54.00;43.00;;;;;19.33;100.00;101577.75;6269374;22;45378;-87
2022/03/05 13:33:49;;;;;;;;;50.75;42.50;;;;;19.53;100.00;101575.50;6270798;22;45397;-88
2022/03/05 13:36:22;;;;;;;;;54.75;41.25;;;;;19.79;100.00;101580.47;6269873;22;45372;-87
2022/03/05 13:38:49;;;;;;;;;49.50;39.50;;;;;20.18;100.00;101585.66;6269839;22;45992;-88
2022/03/05 13:41:21;;;;;;;;;55.00;42.25;;;;;20.52;100.00;101578.28;6268499;22;45367;-88
2022/03/05 13:43:46;;;;;;;;;49.25;40.25;;;;;20.59;100.00;101565.94;6241782;22;45684;-88
2022/03/05 13:46:11;;;;;;;;;56.50;43.25;;;;;20.69;100.00;101568.78;6269783;22;45448;-88
2022/03/05 13:48:58;;;;;;;;;52.75;40.25;;;;;20.84;100.00;101570.78;6242380;22;47398;-88
2022/03/05 13:51:28;;;;;;;;;50.50;40.50;;;;;20.86;100.00;101563.72;6268946;22;45503;-87
2022/03/05 13:53:56;;;;;;;;;51.25;42.50;;;;;20.86;100.00;101564.59;6269769;22;45235;-87
2022/03/05 13:56:22;;;;;;;;;45.25;37.50;;;;;20.80;100.00;101569.84;6268298;22;45696;-87
2022/03/05 13:58:53;;;;;;;;;50.25;41.00;;;;;20.86;100.00;101563.72;6268723;22;45739;-89
2022/03/05 14:01:40;;;;;;;;;55.50;44.50;;;;;20.83;100.00;101558.31;6278604;22;45248;-91
2022/03/05 14:04:15;;;;;;;;;49.25;38.75;;;;;20.72;100.00;101556.38;6242858;22;45617;-89
2022/03/05 14:06:47;;;;;;;;;50.25;42.00;;;;;20.78;100.00;101558.25;6294499;22;45539;-90
2022/03/05 14:09:35;;;;;;;;;54.25;43.00;;;;;20.77;100.00;101560.00;6250972;22;47141;-90
2022/03/05 14:12:14;;;;;;;;;52.25;42.75;;;;;20.73;100.00;101555.50;6273761;22;45956;-89
2022/03/05 14:14:51;;;;;;;;;54.50;40.00;;;;;20.86;100.00;101558.38;6276253;22;45420;-90
2022/03/05 14:17:45;;;;;;;;;52.50;40.75;;;;;21.01;100.00;101560.41;6304191;22;45403;-87
2022/03/05 14:20:19;;;;;;;;;57.00;43.00;;;;;21.31;100.00;101545.69;6302739;22;45352;-87
2022/03/05 14:22:44;;;;;;;;;45.75;38.25;;;;;21.74;100.00;101543.53;6303652;22;45361;-87
2022/03/05 14:25:15;;;;;;;;;49.75;40.50;;;;;22.15;100.00;101550.22;6274152;22;45261;-86
2022/03/05 14:27:42;;;;;;;;;56.50;44.00;;;;;22.46;100.00;101544.28;6302093;22;45340;-87
2022/03/05 14:30:07;;;;;;;;;55.00;44.25;;;;;22.71;100.00;101543.59;6300215;22;47266;-87
2022/03/05 14:32:33;;;;;;;;;54.00;41.75;;;;;22.84;100.00;101539.22;6303107;22;45291;-88
2022/03/05 14:34:58;;;;;;;;;53.50;42.50;;;;;23.77;100.00;101535.19;6300598;22;45296;-88
2022/03/05 14:37:23;;;;;;;;;55.75;45.00;;;;;25.11;100.00;101538.81;6303641;22;45378;-88
2022/03/05 14:39:49;;;;;;;;;52.50;41.75;;;;;25.93;100.00;101525.00;6302855;22;45431;-88
2022/03/05 14:42:14;;;;;;;;;49.25;41.00;;;;;25.76;100.00;101531.38;6301641;22;45506;-87
2022/03/05 14:44:39;;;;;;;;;54.25;44.25;;;;;25.10;100.00;101531.66;6302220;22;45422;-87
2022/03/05 14:47:05;;;;;;;;;55.75;43.75;;;;;24.44;100.00;101538.00;6302990;22;45351;-87
2022/03/05 14:49:30;;;;;;;;;50.25;41.25;;;;;23.79;100.00;101533.41;6301867;22;46600;-86
2022/03/05 14:51:56;;;;;;;;;53.50;42.50;;;;;23.22;100.00;101530.50;6300628;22;45846;-87
2022/03/05 14:54:22;;;;;;;;;50.50;41.25;;;;;22.76;100.00;101536.47;6274345;22;45341;-86
2022/03/05 14:56:47;;;;;;;;;55.75;42.50;;;;;22.33;100.00;101538.81;6273822;22;45240;-86
2022/03/05 14:59:13;;;;;;;;;58.25;46.50;;;;;21.96;100.00;101528.66;6302292;22;45428;-87
2022/03/05 15:01:39;;;;;;;;;59.50;43.75;;;;;21.73;100.00;101531.94;6274351;22;45442;-85
2022/03/05 15:04:05;;;;;;;;;53.00;41.75;;;;;21.64;100.00;101527.41;6303389;22;45262;-86
2022/03/05 15:06:31;;;;;;;;;57.25;44.25;;;;;21.59;100.00;101522.88;6304258;22;45539;-85
2022/03/05 15:08:56;;;;;;;;;54.25;42.75;;;;;21.62;100.00;101521.13;6286478;22;45475;-86
2022/03/05 15:11:21;;;;;;;;;59.00;47.50;;;;;21.59;100.00;101522.88;6270016;22;45369;-86
2022/03/05 15:13:47;;;;;;;;;54.00;44.25;;;;;21.55;100.00;101519.28;6274166;22;45333;-91
2022/03/05 15:16:12;;;;;;;;;54.50;43.00;;;;;21.45;100.00;101520.94;6271399;22;45403;-86
2022/03/05 15:18:38;;;;;;;;;63.00;46.00;;;;;21.25;100.00;101529.59;6269865;22;45341;-86
2022/03/05 15:21:03;;;;;;;;;60.00;46.50;;;;;21.05;100.00;101530.22;6243229;22;45487;-86
2022/03/05 15:23:29;;;;;;;;;59.25;47.75;;;;;20.85;100.00;101529.88;6270771;22;45704;-86
2022/03/05 15:25:55;;;;;;;;;60.00;45.75;;;;;20.71;100.00;101532.34;6268032;22;45523;-85
2022/03/05 15:28:20;;;;;;;;;59.75;47.00;;;;;20.53;100.00;101540.09;6269791;22;45437;-86
2022/03/05 15:30:49;;;;;;;;;63.25;48.00;;;;;20.37;100.00;101528.25;6271279;22;45405;-88
2022/03/05 15:33:14;;;;;;;;;55.75;45.25;;;;;20.10;100.00;101533.09;6272008;22;45537;-85
2022/03/05 15:35:39;;;;;;;;;61.25;47.00;;;;;19.88;100.00;101540.69;6267909;22;47531;-86
2022/03/05 15:38:05;;;;;;;;;61.75;50.25;;;;;19.72;100.00;101536.84;6271212;22;45530;-86
2022/03/05 15:40:31;;;;;;;;;59.50;47.25;;;;;19.57;100.00;101537.41;6274074;22;45584;-86
2022/03/05 15:42:56;;;;;;;;;60.75;48.25;;;;;19.41;100.00;101542.44;6270281;22;45482;-87
2022/03/05 15:45:22;;;;;;;;;63.00;49.75;;;;;19.24;100.00;101538.50;6268508;22;45422;-86
2022/03/05 15:47:48;;;;;;;;;61.75;47.00;;;;;19.05;100.00;101538.94;6271236;22;45366;-86
2022/03/05 15:50:14;;;;;;;;;58.25;45.25;;;;;18.85;100.00;101535.84;6269953;22;45384;-85
2022/03/05 15:52:41;;;;;;;;;62.50;49.00;;;;;18.79;100.00;101538.34;6271277;22;45344;-87
2022/03/05 15:55:07;;;;;;;;;65.50;48.75;;;;;18.73;100.00;101540.00;6243134;22;45463;-86
2022/03/05 15:57:32;;;;;;;;;63.00;50.50;;;;;18.67;100.00;101531.88;6269798;22;45478;-86
2022/03/05 15:59:58;;;;;;;;;68.00;52.75;;;;;18.60;100.00;101527.28;6269848;22;45626;-86
2022/03/05 16:02:23;;;;;;;;;68.00;53.00;;;;;18.59;100.00;101541.41;6270340;22;45428;-86
2022/03/05 16:04:48;;;;;;;;;60.75;49.00;;;;;18.47;100.00;101531.38;6270867;22;45673;-85
2022/03/05 16:07:14;;;;;;;;;55.25;45.75;;;;;18.28;100.00;101525.59;6241956;22;47515;-85
2022/03/05 16:09:39;;;;;;;;;60.25;48.00;;;;;18.20;100.00;101533.38;6269795;22;45269;-86
2022/03/05 16:12:05;;;;;;;;;58.50;46.25;;;;;18.05;100.00;101529.41;6269479;22;53352;-85
2022/03/05 16:14:30;;;;;;;;;60.00;48.25;;;;;17.97;100.00;101536.28;6241862;22;45593;-86
2022/03/05 16:16:56;;;;;;;;;63.25;48.25;;;;;17.82;100.00;101529.69;6268841;22;46987;-85
2022/03/05 16:19:21;;;;;;;;;61.50;47.25;;;;;17.72;100.00;101528.53;6271426;22;45646;-86
2022/03/05 16:21:46;;;;;;;;;59.50;45.50;;;;;17.61;100.00;101527.31;6271260;22;45542;-86
2022/03/05 16:24:12;;;;;;;;;50.50;43.00;;;;;17.58;100.00;101532.53;6289531;22;45239;-85
2022/03/05 16:26:37;;;;;;;;;58.50;45.50;;;;;17.47;100.00;101527.81;6290012;22;45334;-87
2022/03/05 16:29:04;;;;;;;;;62.25;48.50;;;;;17.43;100.00;101531.25;6287955;22;45293;-86
2022/03/05 16:31:29;;;;;;;;;56.00;44.50;;;;;17.27;100.00;101521.91;6258823;22;44686;-86
2022/03/05 16:33:55;;;;;;;;;63.25;47.75;;;;;17.18;100.00;101515.50;6245172;22;45515;-86
2022/03/05 16:36:27;;;;;;;;;62.50;48.50;;;;;17.15;100.00;101522.41;6268277;22;46373;-86
2022/03/05 16:38:54;;;;;;;;;59.25;45.00;;;;;17.06;100.00;101520.41;6270442;22;45286;-87
2022/03/05 16:41:20;;;;;;;;;60.25;48.25;;;;;16.96;100.00;101519.19;6243011;22;45395;-86
2022/03/05 16:43:46;;;;;;;;;61.75;48.50;;;;;16.91;100.00;101515.50;6272045;22;45692;-86
2022/03/05 16:46:11;;;;;;;;;55.25;45.00;;;;;16.88;100.00;101524.25;6270636;22;45375;-86
2022/03/05 16:48:37;;;;;;;;;62.00;49.25;;;;;16.77;100.00;101529.22;6272028;22;45405;-86
2022/03/05 16:51:04;;;;;;;;;59.50;44.75;;;;;16.72;100.00;101523.78;6272149;22;45325;-86
2022/03/05 16:53:29;;;;;;;;;62.25;46.75;;;;;16.62;100.00;101524.34;6272681;22;45349;-86
2022/03/05 16:55:55;;;;;;;;;58.00;46.50;;;;;16.53;100.00;101528.47;6271590;22;45483;-86
2022/03/05 16:58:20;;;;;;;;;51.25;43.00;;;;;16.44;100.00;101524.63;6270434;22;45265;-86
2022/03/05 17:00:46;;;;;;;;;59.75;47.00;;;;;16.37;100.00;101528.78;6271186;22;45470;-86
2022/03/05 17:03:11;;;;;;;;;60.50;46.50;;;;;16.26;100.00;101528.44;6271554;22;45332;-86
2022/03/05 17:05:37;;;;;;;;;61.25;46.00;;;;;16.18;100.00;101528.19;6271168;22;46028;-87
2022/03/05 17:08:03;;;;;;;;;58.50;46.75;;;;;16.12;100.00;101533.25;6271933;22;45304;-86
2022/03/05 17:10:29;;;;;;;;;62.50;48.00;;;;;16.06;100.00;101532.19;6243388;22;45444;-87
2022/03/05 17:12:54;;;;;;;;;58.25;47.25;;;;;16.00;100.00;101539.91;6267767;22;45414;-87
2022/03/05 17:15:20;;;;;;;;;68.75;51.00;;;;;15.92;100.00;101536.97;6268232;22;47970;-88
2022/03/05 17:17:46;;;;;;;;;63.00;47.25;;;;;15.89;100.00;101546.53;6271638;22;45396;-86
2022/03/05 17:20:12;;;;;;;;;63.00;51.00;;;;;15.80;100.00;101541.81;6270980;22;45383;-89
2022/03/05 17:22:38;;;;;;;;;60.00;48.00;;;;;15.78;100.00;101541.75;6271062;22;45303;-92
2022/03/05 17:25:04;;;;;;;;;62.00;48.00;;;;;15.72;100.00;101547.72;6297692;22;47464;-88
2022/03/05 17:27:30;;;;;;;;;64.50;48.25;;;;;15.61;100.00;101538.50;6268302;22;47493;-88
2022/03/05 17:29:56;;;;;;;;;63.75;47.75;;;;;15.61;100.00;101538.50;6271185;22;45353;-88
2022/03/05 17:32:22;;;;;;;;;61.50;48.00;;;;;15.54;100.00;101550.56;6278719;22;45403;-88
2022/03/05 17:34:48;;;;;;;;;66.00;50.25;;;;;15.54;100.00;101555.88;6270458;22;48363;-89
2022/03/05 17:37:13;;;;;;;;;61.75;48.50;;;;;15.47;100.00;101552.09;6271094;22;45367;-88
2022/03/05 17:39:38;;;;;;;;;66.50;49.00;;;;;15.44;100.00;101549.34;6271775;22;45227;-87
2022/03/05 17:42:04;;;;;;;;;60.75;48.75;;;;;15.42;100.00;101551.03;6270038;22;45279;-88
2022/03/05 17:44:30;;;;;;;;;65.50;50.25;;;;;15.39;100.00;101554.44;6242761;22;48193;-88
2022/03/05 17:46:59;;;;;;;;;66.00;50.50;;;;;15.32;100.00;101548.88;6242382;22;45270;-87
2022/03/05 17:49:27;;;;;;;;;63.00;49.00;;;;;15.32;100.00;101552.41;6271066;22;45365;-89
2022/03/05 17:51:52;;;;;;;;;62.75;50.00;;;;;15.23;100.00;101557.38;6270749;22;45472;-89
2022/03/05 17:54:18;;;;;;;;;65.00;49.75;;;;;15.21;100.00;101556.38;6271615;22;46651;-88
2022/03/05 17:56:43;;;;;;;;;64.25;52.25;;;;;15.13;100.00;101554.34;6270337;22;45528;-88
2022/03/05 17:59:08;;;;;;;;;70.25;54.25;;;;;15.07;100.00;101552.38;6272288;22;45369;-89
2022/03/05 18:01:33;;;;;;;;;73.50;53.25;;;;;14.97;100.00;101556.38;6242569;22;52933;-90
2022/03/05 18:03:59;;;;;;;;;70.50;53.00;;;;;14.94;100.00;101564.19;6271165;22;45842;-89
2022/03/05 18:06:25;;;;;;;;;69.75;53.25;;;;;14.90;100.00;101570.19;6243785;22;45595;-90
2022/03/05 18:08:51;;;;;;;;;71.75;54.75;;;;;14.85;100.00;101569.97;6253168;22;45338;-89
2022/03/05 18:11:16;;;;;;;;;68.25;53.25;;;;;14.78;100.00;101574.94;6271345;22;45197;-88
2022/03/05 18:13:41;;;;;;;;;65.75;51.75;;;;;14.72;100.00;101568.56;6269615;22;46354;-89
2022/03/05 18:16:07;;;;;;;;;71.50;53.25;;;;;14.68;100.00;101569.28;6267194;22;45377;-89